Time;durP1;ratioP1;P1;durP2;ratioP2;P2;SDS_P1;SDS_P2;PMS_P1;PMS_P2;Temp;Humidity;BMP_temperature;BMP_pressure;BME280_temperature;BME280_humidity;BME280_pressure;Samples;Min_cycle;Max_cycle;Signal;HPM_P1;HPM_P2
2023/01/12 00:01:16;;;;;;;10.90;2.20;;;7.70;99.90;;;;;;5114290;27;20039;-80
2023/01/12 00:04:02;;;;;;;15.45;3.83;;;7.70;99.90;;;;;;5112243;28;20051;-82
2023/01/12 00:06:48;;;;;;;10.50;1.90;;;7.70;99.90;;;;;;5111183;28;20059;-81
2023/01/12 00:09:35;;;;;;;12.10;2.22;;;7.60;99.90;;;;;;5111014;28;20112;-85
2023/01/12 00:12:22;;;;;;;14.65;2.08;;;7.60;99.90;;;;;;5116766;28;20040;-81
2023/01/12 00:15:08;;;;;;;9.70;2.80;;;7.50;99.90;;;;;;5093416;28;20055;-79
2023/01/12 00:17:55;;;;;;;15.30;2.17;;;7.50;99.90;;;;;;5093931;28;20044;-87
2023/01/12 00:24:44;;;;;;;8.88;1.98;;;7.40;99.90;;;;;;5113068;28;20051;-80
2023/01/12 00:27:30;;;;;;;20.20;3.67;;;7.40;99.90;;;;;;5094532;28;20100;-80
2023/01/12 00:30:17;;;;;;;17.17;3.05;;;7.30;99.90;;;;;;5092834;28;20101;-86
2023/01/12 00:33:03;;;;;;;13.23;3.25;;;7.30;99.90;;;;;;5112437;28;20075;-82
2023/01/12 00:35:49;;;;;;;23.98;5.22;;;7.30;99.90;;;;;;5114813;28;20077;-79
2023/01/12 00:38:37;;;;;;;19.30;3.10;;;7.40;99.90;;;;;;5093880;28;20047;-83
2023/01/12 00:47:34;;;;;;;30.17;4.38;;;7.50;99.90;;;;;;5092863;28;20062;-79
2023/01/12 00:50:21;;;;;;;22.83;5.28;;;7.60;99.90;;;;;;5111504;28;20040;-80
2023/01/12 00:53:07;;;;;;;25.27;4.03;;;7.60;99.90;;;;;;5112378;28;20054;-83
2023/01/12 00:55:53;;;;;;;18.15;4.47;;;7.60;99.90;;;;;;5098579;28;20074;-79
2023/01/12 00:58:39;;;;;;;23.70;5.32;;;7.60;99.90;;;;;;5098947;28;20051;-82
2023/01/12 01:01:25;;;;;;;22.02;4.97;;;7.70;99.90;;;;;;5111690;28;20466;-82
2023/01/12 01:04:12;;;;;;;24.17;3.95;;;7.70;99.90;;;;;;5094189;28;20051;-81
2023/01/12 01:06:58;;;;;;;22.88;3.88;;;7.70;99.90;;;;;;5091840;28;20039;-82
2023/01/12 01:09:44;;;;;;;29.08;4.60;;;7.70;99.90;;;;;;5111317;28;20051;-81
2023/01/12 01:12:32;;;;;;;27.92;4.82;;;7.60;99.90;;;;;;5065431;28;20047;-83
2023/01/12 01:15:18;;;;;;;21.60;3.35;;;7.60;99.90;;;;;;5098693;28;20054;-85
2023/01/12 01:18:04;;;;;;;20.90;3.92;;;7.60;99.90;;;;;;5112616;28;20047;-81
2023/01/12 01:20:50;;;;;;;25.42;4.63;;;7.50;99.90;;;;;;5078636;28;20047;-81
2023/01/12 01:23:37;;;;;;;20.35;3.33;;;7.50;99.90;;;;;;5092464;28;20399;-82
2023/01/12 01:26:24;;;;;;;22.05;4.13;;;7.50;99.90;;;;;;5110641;28;20036;-82
2023/01/12 01:29:10;;;;;;;21.92;4.00;;;7.50;99.90;;;;;;5092262;28;20474;-82
2023/01/12 01:31:57;;;;;;;24.77;4.80;;;7.60;99.90;;;;;;5110636;28;20508;-85
2023/01/12 01:34:45;;;;;;;23.27;3.58;;;7.60;99.90;;;;;;5111076;28;20126;-84
2023/01/12 01:37:31;;;;;;;24.58;4.47;;;7.60;99.90;;;;;;5092624;28;20116;-85
2023/01/12 01:40:17;;;;;;;20.50;4.80;;;7.60;99.90;;;;;;5083215;28;20134;-80
2023/01/12 01:43:03;;;;;;;42.90;4.35;;;7.60;99.90;;;;;;5092964;28;20054;-80
2023/01/12 01:46:01;;;;;;;38.85;6.25;;;7.60;99.90;;;;;;5095423;28;20107;-80
2023/01/12 01:48:48;;;;;;;23.20;4.60;;;7.60;99.90;;;;;;5092080;28;20503;-81
2023/01/12 01:51:35;;;;;;;21.73;4.30;;;7.60;99.90;;;;;;5091471;28;20047;-80
2023/01/12 01:54:22;;;;;;;18.92;4.88;;;7.60;99.90;;;;;;5095194;28;20040;-79
2023/01/12 01:57:10;;;;;;;26.00;5.55;;;7.60;99.90;;;;;;5089920;28;20252;-80
2023/01/12 01:59:57;;;;;;;27.33;4.15;;;7.70;99.90;;;;;;5110767;28;20134;-80
2023/01/12 02:02:45;;;;;;;26.85;4.90;;;7.70;99.90;;;;;;5112919;28;20044;-81
2023/01/12 02:05:32;;;;;;;27.60;4.97;;;7.70;99.90;;;;;;5110413;28;20042;-80
2023/01/12 02:08:44;;;;;;;24.58;4.50;;;7.80;99.90;;;;;;5092457;28;20123;-83
2023/01/12 02:18:01;;;;;;;26.88;5.60;;;7.80;99.90;;;;;;5110762;28;20055;-80
2023/01/12 02:21:05;;;;;;;21.10;4.00;;;7.80;99.90;;;;;;5078090;28;20043;-86
2023/01/12 02:24:23;;;;;;;22.25;4.68;;;7.80;99.90;;;;;;5095536;28;20094;-81
2023/01/12 02:27:38;;;;;;;20.33;6.20;;;7.80;99.90;;;;;;5037960;28;20097;-81
2023/01/12 02:30:30;;;;;;;35.30;6.22;;;7.90;99.90;;;;;;5110230;28;20062;-81
2023/01/12 02:33:40;;;;;;;25.05;4.53;;;7.90;99.90;;;;;;5091815;28;20499;-83
2023/01/12 02:36:38;;;;;;;26.58;4.78;;;8.00;99.90;;;;;;5109835;28;20090;-80
2023/01/12 02:40:00;;;;;;;28.63;5.55;;;8.00;99.90;;;;;;5094326;28;20083;-79
2023/01/12 02:43:13;;;;;;;29.27;4.45;;;8.00;99.90;;;;;;5095498;28;20052;-84
2023/01/12 02:46:24;;;;;;;26.10;4.53;;;8.00;99.90;;;;;;5111879;28;20052;-81
2023/01/12 02:49:16;;;;;;;34.45;6.53;;;8.10;99.90;;;;;;5110222;28;20518;-84
2023/01/12 02:52:10;;;;;;;29.67;5.32;;;8.00;99.90;;;;;;5091922;28;20104;-83
2023/01/12 02:54:59;;;;;;;28.63;4.20;;;8.00;99.90;;;;;;5110100;28;20142;-83
2023/01/12 02:57:45;;;;;;;27.98;5.57;;;8.00;99.90;;;;;;5092493;28;20043;-81
2023/01/12 03:00:34;;;;;;;31.00;5.65;;;8.10;99.90;;;;;;5116941;28;20052;-84
2023/01/12 03:03:21;;;;;;;23.08;4.07;;;8.10;99.90;;;;;;5092439;28;20047;-81
2023/01/12 03:06:08;;;;;;;31.17;5.60;;;8.10;99.90;;;;;;5109580;28;20701;-83
2023/01/12 03:08:55;;;;;;;30.02;6.75;;;8.10;99.90;;;;;;5109679;28;20048;-82
2023/01/12 03:11:45;;;;;;;29.50;6.70;;;8.10;99.90;;;;;;5095440;28;20044;-83
2023/01/12 03:14:34;;;;;;;37.65;6.40;;;8.10;99.90;;;;;;5094669;28;20063;-81
2023/01/12 03:17:37;;;;;;;40.35;7.07;;;8.10;99.90;;;;;;5112919;28;20047;-80
2023/01/12 03:20:37;;;;;;;30.48;5.47;;;8.20;99.90;;;;;;5113759;28;20518;-80
2023/01/12 03:23:30;;;;;;;39.30;7.85;;;8.20;99.90;;;;;;5096206;28;20051;-84
2023/01/12 03:26:22;;;;;;;31.58;6.20;;;8.20;99.90;;;;;;5085156;28;20145;-81
2023/01/12 03:29:26;;;;;;;32.60;6.38;;;8.20;99.90;;;;;;5094431;28;20089;-79
2023/01/12 03:32:14;;;;;;;;;;;8.30;99.90;;;;;;5099413;28;20059;-81
2023/01/12 03:35:00;;;;;;;29.08;5.20;;;8.30;99.90;;;;;;5112379;28;19945;-82
2023/01/12 03:37:57;;;;;;;29.65;6.07;;;8.30;99.90;;;;;;5112563;28;20059;-82
2023/01/12 03:40:48;;;;;;;30.38;7.10;;;8.30;99.90;;;;;;5094145;28;20537;-81
2023/01/12 03:43:42;;;;;;;29.52;6.75;;;8.30;99.90;;;;;;5112533;28;20062;-82
2023/01/12 03:46:40;;;;;;;41.60;6.90;;;8.30;99.90;;;;;;5094380;28;20078;-83
2023/01/12 03:49:33;;;;;;;29.77;6.63;;;8.30;99.90;;;;;;5120288;28;20491;-85
2023/01/12 03:52:22;;;;;;;22.70;5.95;;;8.30;99.90;;;;;;5113660;28;20115;-81
2023/01/12 03:55:14;;;;;;;36.33;5.70;;;8.30;99.90;;;;;;5094658;28;20047;-85
2023/01/12 03:58:01;;;;;;;35.83;6.32;;;8.40;99.90;;;;;;5114500;28;20056;-84
2023/01/12 04:00:47;;;;;;;32.80;6.70;;;8.40;99.90;;;;;;5094137;28;20051;-81
2023/01/12 04:03:34;;;;;;;28.65;6.95;;;8.40;99.90;;;;;;5095037;28;20448;-81
2023/01/12 04:06:20;;;;;;;29.80;5.38;;;8.40;99.90;;;;;;5093319;28;20079;-82
2023/01/12 04:09:06;;;;;;;35.80;6.65;;;8.40;99.90;;;;;;5093743;28;20472;-85
2023/01/12 04:12:11;;;;;;;34.40;5.75;;;8.40;99.90;;;;;;5085952;28;20071;-81
2023/01/12 04:14:57;;;;;;;31.38;5.30;;;8.40;99.90;;;;;;5111044;28;20047;-81
2023/01/12 04:17:44;;;;;;;26.35;5.00;;;8.40;99.90;;;;;;5112468;28;20083;-81
2023/01/12 04:20:30;;;;;;;32.92;7.15;;;8.30;99.90;;;;;;5111998;28;20040;-81
2023/01/12 04:23:16;;;;;;;24.73;5.55;;;8.30;99.90;;;;;;5093446;28;20106;-82
2023/01/12 04:26:02;;;;;;;25.50;4.60;;;8.30;99.90;;;;;;5111746;28;20050;-83
2023/01/12 04:28:49;;;;;;;20.65;4.28;;;8.40;99.90;;;;;;5110951;28;20549;-80
2023/01/12 04:31:35;;;;;;;28.88;5.70;;;8.40;99.90;;;;;;5112163;28;20074;-88
2023/01/12 04:34:22;;;;;;;26.27;4.85;;;8.40;99.90;;;;;;5097934;28;20134;-81
2023/01/12 04:37:09;;;;;;;18.73;3.63;;;8.40;99.90;;;;;;5110546;28;20138;-83
2023/01/12 04:39:55;;;;;;;29.05;5.40;;;8.30;99.90;;;;;;5111599;28;20039;-84
2023/01/12 04:43:01;;;;;;;21.02;4.68;;;8.30;99.90;;;;;;5112698;28;20043;-86
2023/01/12 04:45:47;;;;;;;;;;;8.20;99.90;;;;;;5112046;28;20039;-84
2023/01/12 04:48:33;;;;;;;;;;;8.20;99.90;;;;;;5112202;28;20371;-86
2023/01/12 04:51:19;;;;;;;;;;;8.20;99.90;;;;;;5112528;28;19927;-81
2023/01/12 04:54:05;;;;;;;;;;;8.10;99.90;;;;;;5093081;28;20484;-87
2023/01/12 04:56:51;;;;;;;20.75;3.33;;;8.10;99.90;;;;;;5112876;28;20021;-87
2023/01/12 04:59:38;;;;;;;19.00;3.97;;;8.10;99.90;;;;;;5100761;28;20055;-81
2023/01/12 05:02:24;;;;;;;22.45;5.30;;;8.10;99.90;;;;;;5110524;28;20094;-87
2023/01/12 05:05:10;;;;;;;15.38;3.35;;;8.10;99.90;;;;;;5110029;28;20134;-82
2023/01/12 05:11:06;;;;;;;20.30;3.20;;;8.10;99.90;;;;;;5092736;28;20113;-84
2023/01/12 05:13:53;;;;;;;19.77;3.28;;;8.00;99.90;;;;;;5111198;28;20080;-86
2023/01/12 05:16:39;;;;;;;17.80;3.17;;;8.00;99.90;;;;;;5093653;28;20047;-86
2023/01/12 05:19:25;;;;;;;21.63;3.08;;;8.00;99.90;;;;;;5097448;28;20490;-87
2023/01/12 05:22:11;;;;;;;14.77;2.63;;;8.10;99.90;;;;;;5117572;28;20430;-83
2023/01/12 05:24:57;;;;;;;17.42;4.10;;;8.10;99.90;;;;;;5078182;28;20487;-82
2023/01/12 05:27:44;;;;;;;14.45;3.28;;;8.10;99.90;;;;;;5093896;28;20047;-85
2023/01/12 05:30:30;;;;;;;12.95;2.42;;;8.10;99.90;;;;;;5094938;28;20066;-81
2023/01/12 05:33:18;;;;;;;11.32;2.22;;;8.10;99.90;;;;;;5109362;28;20495;-85
2023/01/12 05:36:05;;;;;;;12.65;2.35;;;8.10;99.90;;;;;;5111438;28;20043;-81
2023/01/12 05:38:51;;;;;;;10.90;2.15;;;8.10;99.90;;;;;;5110706;28;20047;-87
2023/01/12 05:43:48;;;;;;;10.35;1.95;;;8.10;99.90;;;;;;5111134;28;20058;-79
2023/01/12 05:44:44;;;;;;;8.80;1.63;;;8.10;99.90;;;;;;5099583;28;20043;-79
2023/01/12 05:47:30;;;;;;;5.88;1.50;;;8.10;99.90;;;;;;5112837;28;20090;-83
2023/01/12 05:50:16;;;;;;;7.07;1.42;;;8.10;99.90;;;;;;5110654;28;20056;-87
2023/01/12 05:53:03;;;;;;;3.83;1.10;;;8.20;99.90;;;;;;5093580;28;20039;-82
2023/01/12 05:55:49;;;;;;;3.72;1.10;;;8.20;99.90;;;;;;5097132;28;20051;-85
2023/01/12 05:58:35;;;;;;;2.88;1.20;;;8.30;99.90;;;;;;5090922;28;20491;-80
2023/01/12 06:01:22;;;;;;;3.10;1.00;;;8.30;99.90;;;;;;5118858;28;20044;-81
2023/01/12 06:04:09;;;;;;;7.15;1.30;;;8.20;99.90;;;;;;5101660;28;20427;-81
2023/01/12 06:06:55;;;;;;;6.45;1.35;;;8.20;99.90;;;;;;5117111;28;20079;-86
2023/01/12 06:09:41;;;;;;;3.40;1.05;;;8.30;99.90;;;;;;5117938;28;20487;-84
2023/01/12 06:15:33;;;;;;;8.67;1.13;;;8.30;99.90;;;;;;5091840;28;20054;-87
2023/01/12 06:18:21;;;;;;;4.50;1.30;;;8.30;99.90;;;;;;5091504;28;20290;-86
2023/01/12 06:21:09;;;;;;;7.18;1.13;;;8.30;99.90;;;;;;5090805;28;20047;-85
2023/01/12 06:23:55;;;;;;;5.55;1.00;;;8.30;99.90;;;;;;5092014;28;20051;-79
2023/01/12 06:26:43;;;;;;;6.00;0.70;;;8.40;99.90;;;;;;5090419;28;20048;-83
2023/01/12 06:29:30;;;;;;;4.32;1.00;;;8.40;99.90;;;;;;5109554;28;20051;-87
2023/01/12 06:32:16;;;;;;;3.33;1.35;;;8.40;99.90;;;;;;5091808;28;20048;-81
2023/01/12 06:35:04;;;;;;;4.30;1.50;;;8.50;99.90;;;;;;5094510;28;20580;-85
2023/01/12 06:37:55;;;;;;;9.57;2.42;;;8.50;99.90;;;;;;5091561;28;20052;-86
2023/01/12 06:40:42;;;;;;;7.50;2.08;;;8.60;99.90;;;;;;5093026;28;20689;-79
2023/01/12 06:43:28;;;;;;;13.40;2.85;;;8.60;99.90;;;;;;5110217;28;20062;-85
2023/01/12 06:46:14;;;;;;;19.05;3.35;;;8.70;99.90;;;;;;5113843;28;20043;-85
2023/01/12 06:49:00;;;;;;;23.85;3.92;;;8.70;99.90;;;;;;5082749;28;20161;-85
2023/01/12 06:51:50;;;;;;;25.13;4.43;;;8.80;99.90;;;;;;5094979;28;20100;-86
2023/01/12 06:54:36;;;;;;;35.78;5.38;;;9.00;99.90;;;;;;5095709;28;20043;-80
2023/01/12 06:57:22;;;;;;;38.60;7.40;;;9.10;99.90;;;;;;5118986;28;20384;-84
2023/01/12 07:00:11;;;;;;;45.53;6.28;;;9.30;99.90;;;;;;5116139;28;20055;-79
2023/01/12 07:02:58;;;;;;;35.78;6.82;;;9.40;99.90;;;;;;5113589;28;20047;-84
2023/01/12 07:05:44;;;;;;;31.95;5.82;;;9.50;99.90;;;;;;5081906;28;20434;-85
2023/01/12 07:08:31;;;;;;;37.13;5.30;;;9.60;99.90;;;;;;5113128;28;20211;-82
2023/01/12 07:11:17;;;;;;;49.88;6.78;;;9.60;99.90;;;;;;5095636;28;20089;-81
2023/01/12 07:14:03;;;;;;;32.45;6.05;;;9.70;99.90;;;;;;5112877;28;20043;-80
2023/01/12 07:16:50;;;;;;;40.58;6.93;;;9.70;99.90;;;;;;5114661;28;20097;-80
2023/01/12 07:19:36;;;;;;;31.58;5.15;;;9.70;99.90;;;;;;5094685;28;20094;-85
2023/01/12 07:22:22;;;;;;;34.67;5.60;;;9.70;99.90;;;;;;5094625;28;20043;-82
2023/01/12 07:25:09;;;;;;;35.13;5.95;;;9.80;99.90;;;;;;5095962;28;20549;-85
2023/01/12 07:27:57;;;;;;;27.55;4.82;;;9.80;99.90;;;;;;5080069;28;20455;-85
2023/01/12 07:30:43;;;;;;;31.67;5.00;;;9.90;99.90;;;;;;5103577;28;20047;-84
2023/01/12 07:33:29;;;;;;;26.85;4.47;;;9.90;99.90;;;;;;5114980;28;20044;-82
2023/01/12 07:36:15;;;;;;;39.97;4.72;;;9.90;99.90;;;;;;5083296;28;20529;-84
2023/01/12 07:39:02;;;;;;;29.98;5.28;;;10.00;99.90;;;;;;5113973;28;20186;-86
2023/01/12 07:44:53;;;;;;;41.42;5.70;;;9.90;99.90;;;;;;5113085;28;20351;-86
2023/01/12 07:47:39;;;;;;;35.15;6.93;;;9.90;99.90;;;;;;5096139;28;20466;-84
2023/01/12 07:50:27;;;;;;;37.35;7.00;;;9.80;99.90;;;;;;5094166;28;20047;-85
2023/01/12 07:53:13;;;;;;;36.65;6.13;;;9.80;99.90;;;;;;5112702;28;20058;-83
2023/01/12 07:55:59;;;;;;;29.20;6.43;;;9.90;99.90;;;;;;5115890;28;20111;-84
2023/01/12 07:58:49;;;;;;;28.25;5.40;;;9.90;99.90;;;;;;5114119;28;20043;-83
2023/01/12 08:01:36;;;;;;;25.88;4.75;;;9.90;99.90;;;;;;5112472;28;20050;-83
2023/01/12 08:04:22;;;;;;;42.00;5.30;;;9.90;99.90;;;;;;5094928;28;20048;-83
2023/01/12 08:07:09;;;;;;;28.20;5.10;;;9.90;99.90;;;;;;5113240;28;20457;-80
2023/01/12 08:09:55;;;;;;;32.20;6.88;;;9.90;99.90;;;;;;5111449;28;20056;-80
2023/01/12 08:12:41;;;;;;;24.77;5.68;;;10.00;99.90;;;;;;5111841;28;20083;-82
2023/01/12 08:15:34;;;;;;;23.65;4.82;;;10.00;99.90;;;;;;5093636;28;20562;-84
2023/01/12 08:18:26;;;;;;;29.15;5.13;;;10.00;99.90;;;;;;5113385;28;20044;-80
2023/01/12 08:21:17;;;;;;;28.38;5.07;;;10.00;99.90;;;;;;5116015;28;20044;-81
2023/01/12 08:24:05;;;;;;;30.98;6.10;;;10.00;99.90;;;;;;5082114;28;20059;-81
2023/01/12 08:26:56;;;;;;;28.20;5.55;;;9.90;99.90;;;;;;5113567;28;20058;-79
2023/01/12 08:29:50;;;;;;;32.70;5.20;;;10.00;99.90;;;;;;5113765;28;20479;-82
2023/01/12 08:32:36;;;;;;;34.95;5.32;;;10.00;99.90;;;;;;5112486;28;20092;-80
2023/01/12 08:35:26;;;;;;;25.92;6.00;;;10.00;99.90;;;;;;5093895;28;20062;-77
2023/01/12 08:38:13;;;;;;;33.53;5.70;;;10.00;99.90;;;;;;5112334;28;20418;-81
2023/01/12 08:44:08;;;;;;;30.25;4.85;;;10.00;99.90;;;;;;5111355;28;20047;-80
2023/01/12 08:46:55;;;;;;;26.13;5.28;;;10.00;99.90;;;;;;5115735;28;20120;-80
2023/01/12 08:49:41;;;;;;;29.92;4.78;;;10.00;99.90;;;;;;5092093;28;20481;-85
2023/01/12 08:52:31;;;;;;;21.70;4.30;;;10.10;99.90;;;;;;5111063;28;20047;-85
2023/01/12 08:55:17;;;;;;;23.63;4.85;;;10.20;99.90;;;;;;5111681;28;20051;-81
2023/01/12 08:58:04;;;;;;;21.23;4.80;;;10.10;99.90;;;;;;5111550;28;20407;-79
2023/01/12 09:00:50;;;;;;;31.83;4.00;;;10.10;99.90;;;;;;5112051;28;20035;-84
2023/01/12 09:03:38;;;;;;;23.13;3.67;;;10.10;99.90;;;;;;5112676;28;20058;-81
2023/01/12 09:06:29;;;;;;;19.25;3.25;;;10.10;99.90;;;;;;5111872;28;20044;-81
2023/01/12 09:09:18;;;;;;;21.63;5.47;;;10.10;99.90;;;;;;5110613;28;20048;-83
2023/01/12 09:12:05;;;;;;;22.15;3.80;;;10.10;99.90;;;;;;5111481;28;20044;-81
2023/01/12 09:14:52;;;;;;;24.42;4.00;;;10.20;99.90;;;;;;5114039;28;20083;-80
2023/01/12 09:17:39;;;;;;;25.85;4.00;;;10.20;99.90;;;;;;5111952;28;20048;-82
2023/01/12 09:20:25;;;;;;;25.48;4.32;;;10.20;99.90;;;;;;5097026;28;20130;-80
2023/01/12 09:23:11;;;;;;;24.95;5.85;;;10.20;99.90;;;;;;5111416;28;20101;-77
2023/01/12 09:26:05;;;;;;;27.10;5.13;;;10.20;99.90;;;;;;5113096;28;20085;-79
2023/01/12 09:28:51;;;;;;;21.58;4.53;;;10.20;99.90;;;;;;5096342;28;20815;-84
2023/01/12 09:31:40;;;;;;;26.20;3.75;;;10.10;99.90;;;;;;5093733;28;20054;-80
2023/01/12 09:34:26;;;;;;;21.90;4.57;;;10.10;99.90;;;;;;5114272;28;20086;-79
2023/01/12 09:37:13;;;;;;;32.72;5.63;;;10.30;99.90;;;;;;5093407;28;20107;-79
2023/01/12 09:39:59;;;;;;;35.50;4.50;;;10.30;99.90;;;;;;5109615;28;20056;-82
2023/01/12 09:48:59;;;;;;;21.97;5.60;;;10.30;99.90;;;;;;5113463;28;20067;-82
2023/01/12 09:52:02;;;;;;;22.38;4.18;;;10.30;99.90;;;;;;5113114;28;20051;-84
2023/01/12 09:54:51;;;;;;;29.02;7.32;;;10.20;99.90;;;;;;5111173;28;20152;-82
2023/01/12 09:57:49;;;;;;;23.30;3.78;;;10.30;99.90;;;;;;5093508;28;20052;-82
2023/01/12 10:00:36;;;;;;;33.25;5.38;;;10.20;99.90;;;;;;5096633;28;20048;-83
2023/01/12 10:03:31;;;;;;;36.83;5.32;;;10.20;99.90;;;;;;5112164;28;20048;-81
2023/01/12 10:06:19;;;;;;;21.50;5.28;;;10.10;99.90;;;;;;5094147;28;20495;-80
2023/01/12 10:09:11;;;;;;;22.73;5.63;;;10.00;99.90;;;;;;5111503;28;20056;-81
2023/01/12 10:12:16;;;;;;;27.30;6.03;;;10.00;99.90;;;;;;5096654;28;20047;-84
2023/01/12 10:15:22;;;;;;;35.78;6.55;;;9.90;99.90;;;;;;5110756;28;20044;-82
2023/01/12 10:18:31;;;;;;;28.83;4.53;;;9.90;99.90;;;;;;5113009;28;20055;-83
2023/01/12 10:21:17;;;;;;;25.20;3.88;;;9.80;99.90;;;;;;5093729;28;20055;-82
2023/01/12 10:24:12;;;;;;;24.92;4.10;;;9.70;99.90;;;;;;5094530;28;20083;-80
2023/01/12 10:27:03;;;;;;;24.73;5.33;;;9.60;99.90;;;;;;5091981;28;20083;-84
2023/01/12 10:29:51;;;;;;;29.25;4.60;;;9.50;99.90;;;;;;5109546;28;20052;-83
2023/01/12 10:32:37;;;;;;;28.88;5.72;;;9.50;99.90;;;;;;5094081;28;20402;-79
2023/01/12 10:35:24;;;;;;;22.83;3.92;;;9.50;99.90;;;;;;5095553;28;20050;-82
2023/01/12 10:38:33;;;;;;;28.58;4.43;;;9.60;99.90;;;;;;5116534;28;20043;-83
2023/01/12 10:41:25;;;;;;;21.60;4.82;;;9.60;99.90;;;;;;5112504;28;20051;-86
2023/01/12 10:44:15;;;;;;;32.97;5.05;;;9.70;99.90;;;;;;5092012;28;20138;-80
2023/01/12 10:47:09;;;;;;;33.25;5.20;;;9.70;99.90;;;;;;5111045;28;20134;-79
2023/01/12 10:50:23;;;;;;;34.53;6.55;;;9.70;99.90;;;;;;5111098;28;20075;-83
2023/01/12 10:53:14;;;;;;;38.38;5.07;;;9.70;99.90;;;;;;5094812;28;20044;-84
2023/01/12 10:56:18;;;;;;;26.65;4.78;;;9.70;99.90;;;;;;5111919;28;20055;-82
2023/01/12 10:59:28;;;;;;;28.52;4.50;;;9.80;99.90;;;;;;5114124;28;20059;-84
2023/01/12 11:02:15;;;;;;;30.65;4.47;;;9.70;99.90;;;;;;5111797;28;20561;-83
2023/01/12 11:05:01;;;;;;;21.30;4.65;;;9.70;99.90;;;;;;5094311;28;20079;-82
2023/01/12 11:07:48;;;;;;;29.17;5.30;;;9.70;99.90;;;;;;5098312;28;20051;-80
2023/01/12 11:10:36;;;;;;;27.45;4.88;;;9.70;99.90;;;;;;5108047;28;20059;-81
2023/01/12 11:13:35;;;;;;;20.20;4.80;;;9.70;99.90;;;;;;5114668;28;20131;-80
2023/01/12 11:16:24;;;;;;;31.10;4.85;;;9.80;99.90;;;;;;5109415;28;20047;-80
2023/01/12 11:19:17;;;;;;;24.95;6.10;;;9.80;99.90;;;;;;5112582;28;20047;-79
2023/01/12 11:22:26;;;;;;;24.02;4.85;;;9.70;99.90;;;;;;5110660;28;20138;-84
2023/01/12 11:25:16;;;;;;;18.67;4.15;;;9.70;99.90;;;;;;5110531;28;20050;-83
2023/01/12 11:28:21;;;;;;;22.00;4.05;;;9.70;99.90;;;;;;5109725;28;20047;-81
2023/01/12 11:31:12;;;;;;;23.67;4.97;;;9.70;99.90;;;;;;5109041;28;20117;-86
2023/01/12 11:34:10;;;;;;;31.75;4.60;;;9.70;99.90;;;;;;5115588;28;20043;-82
2023/01/12 11:37:10;;;;;;;26.02;4.65;;;9.70;99.90;;;;;;5114773;28;20062;-78
2023/01/12 11:40:24;;;;;;;26.05;4.57;;;9.70;99.90;;;;;;5098267;28;20048;-80
2023/01/12 11:47:08;;;;;;;19.58;3.55;;;9.70;99.90;;;;;;5116962;28;20203;-80
2023/01/12 11:50:17;;;;;;;26.88;4.78;;;9.80;99.90;;;;;;5107115;28;20049;-80
2023/01/12 11:53:06;;;;;;;22.33;4.13;;;9.80;99.90;;;;;;5116847;28;20529;-79
2023/01/12 11:56:26;;;;;;;19.55;4.63;;;9.80;99.90;;;;;;5115836;28;20085;-84
2023/01/12 11:59:23;;;;;;;20.85;3.97;;;9.80;99.90;;;;;;5121296;28;20055;-86
2023/01/12 12:02:12;;;;;;;31.58;3.85;;;9.90;99.90;;;;;;5121144;28;20047;-83
2023/01/12 12:05:10;;;;;;;22.98;4.35;;;9.90;99.90;;;;;;5104929;28;20071;-82
2023/01/12 12:08:02;;;;;;;22.40;4.40;;;10.00;99.90;;;;;;5123000;28;20047;-82
2023/01/12 12:10:53;;;;;;;19.50;3.25;;;10.00;99.90;;;;;;5098347;28;20059;-84
2023/01/12 12:14:07;;;;;;;18.35;4.32;;;10.10;99.90;;;;;;5096721;28;20491;-84
2023/01/12 12:17:22;;;;;;;30.08;6.05;;;10.10;99.90;;;;;;5113874;28;20070;-85
2023/01/12 12:20:38;;;;;;;23.35;4.18;;;10.10;99.90;;;;;;5115277;28;20487;-84
2023/01/12 12:24:05;;;;;;;23.02;4.47;;;10.20;99.90;;;;;;5096189;28;20043;-86
2023/01/12 12:27:16;;;;;;;23.80;4.28;;;10.30;99.90;;;;;;5113541;28;20415;-87
2023/01/12 12:30:34;;;;;;;18.55;3.10;;;10.50;99.90;;;;;;5114642;28;20047;-85
2023/01/12 12:34:03;;;;;;;18.08;3.05;;;10.70;99.90;;;;;;5116169;28;20039;-84
2023/01/12 12:37:08;;;;;;;15.52;2.50;;;10.80;99.90;;;;;;5114060;28;20048;-81
2023/01/12 12:40:09;;;;;;;20.80;3.72;;;10.90;99.90;;;;;;5113378;28;20499;-85
2023/01/12 12:46:59;;;;;;;22.60;3.60;;;10.80;99.90;;;;;;5112721;28;20050;-84
2023/01/12 12:49:46;;;;;;;17.95;3.35;;;10.90;99.90;;;;;;5116220;28;20046;-85
2023/01/12 12:52:35;;;;;;;18.40;4.13;;;10.90;99.90;;;;;;5102772;28;20047;-88
2023/01/12 12:55:21;;;;;;;21.80;3.33;;;11.00;99.90;;;;;;5116049;28;21175;-81
2023/01/12 12:58:20;;;;;;;18.33;3.65;;;11.00;99.90;;;;;;5116331;28;20052;-84
2023/01/12 13:01:18;;;;;;;20.95;4.22;;;11.00;99.90;;;;;;5114960;28;20552;-81
2023/01/12 13:04:07;;;;;;;19.13;3.95;;;11.00;99.90;;;;;;5114078;28;20042;-85
2023/01/12 13:06:53;;;;;;;21.15;4.05;;;10.90;99.90;;;;;;5114978;28;20039;-86
2023/01/12 13:09:40;;;;;;;19.02;3.13;;;10.90;99.90;;;;;;5096568;28;20072;-82
2023/01/12 13:12:33;;;;;;;16.30;3.63;;;10.80;99.90;;;;;;5095955;28;20467;-86
2023/01/12 13:15:35;;;;;;;18.98;3.60;;;10.80;99.90;;;;;;5097367;28;20430;-80
2023/01/12 13:19:00;;;;;;;29.23;4.55;;;10.80;99.90;;;;;;5116173;28;20071;-79
2023/01/12 13:21:58;;;;;;;28.60;3.78;;;10.80;99.90;;;;;;5096268;28;20050;-79
2023/01/12 13:24:47;;;;;;;32.47;4.80;;;10.80;99.90;;;;;;5119812;28;20061;-83
2023/01/12 13:28:12;;;;;;;18.35;3.90;;;10.70;99.90;;;;;;5105347;28;20422;-82
2023/01/12 13:31:01;;;;;;;24.73;3.65;;;10.70;99.90;;;;;;5113403;28;20081;-78
2023/01/12 13:33:47;;;;;;;31.35;4.55;;;10.70;99.90;;;;;;5112988;28;20044;-79
2023/01/12 13:36:33;;;;;;;32.03;4.03;;;10.70;99.90;;;;;;5094929;28;20066;-78
2023/01/12 13:39:20;;;;;;;25.88;4.72;;;10.70;99.90;;;;;;5113532;28;20044;-85
2023/01/12 13:45:21;;;;;;;20.02;4.00;;;10.70;99.90;;;;;;5113894;28;20044;-83
2023/01/12 13:48:08;;;;;;;26.77;5.10;;;10.70;99.90;;;;;;5114030;28;20055;-86
2023/01/12 13:51:13;;;;;;;18.75;4.22;;;10.70;99.90;;;;;;5095501;28;20474;-86
2023/01/12 13:54:13;;;;;;;30.42;4.53;;;10.70;99.90;;;;;;5080119;28;20503;-81
2023/01/12 13:57:03;;;;;;;21.17;4.05;;;10.70;99.90;;;;;;5112041;28;20063;-82
2023/01/12 14:00:08;;;;;;;29.48;4.22;;;10.70;99.90;;;;;;5092986;28;20051;-81
2023/01/12 14:02:55;;;;;;;26.97;5.47;;;10.70;99.90;;;;;;5093861;28;20122;-81
2023/01/12 14:05:58;;;;;;;32.38;5.68;;;10.70;99.90;;;;;;5094101;28;21138;-80
2023/01/12 14:09:19;;;;;;;27.10;5.53;;;10.70;99.90;;;;;;5115079;28;20127;-84
2023/01/12 14:12:14;;;;;;;23.27;4.43;;;10.70;99.90;;;;;;5104617;28;20087;-82
2023/01/12 14:18:24;;;;;;;28.55;4.43;;;10.80;99.90;;;;;;5090624;28;20483;-80
2023/01/12 14:21:33;;;;;;;27.58;4.40;;;10.80;99.90;;;;;;5110145;28;20761;-80
2023/01/12 14:24:22;;;;;;;25.13;5.30;;;10.80;99.90;;;;;;5110979;28;20081;-79
2023/01/12 14:27:23;;;;;;;31.70;4.45;;;10.80;99.90;;;;;;5109500;28;20047;-81
2023/01/12 14:30:13;;;;;;;26.15;4.53;;;10.80;99.90;;;;;;5111159;28;20051;-80
2023/01/12 14:32:59;;;;;;;23.17;4.38;;;10.80;99.90;;;;;;5084757;28;20047;-83
2023/01/12 14:35:47;;;;;;;22.75;3.83;;;10.80;99.90;;;;;;5077386;28;20108;-81
2023/01/12 14:38:34;;;;;;;23.52;6.05;;;10.80;99.90;;;;;;5110195;28;20448;-80
2023/01/12 14:47:38;;;;;;;19.95;3.65;;;10.70;99.90;;;;;;5109685;28;20496;-82
2023/01/12 14:50:25;;;;;;;18.25;3.13;;;10.60;99.90;;;;;;5092786;28;20052;-79
2023/01/12 14:53:30;;;;;;;26.08;3.72;;;10.50;99.90;;;;;;5115413;28;20040;-81
2023/01/12 14:56:24;;;;;;;21.95;3.50;;;10.40;99.90;;;;;;5108931;28;20079;-81
2023/01/12 14:59:33;;;;;;;18.40;3.10;;;10.40;99.90;;;;;;5110052;28;20051;-82
2023/01/12 15:02:29;;;;;;;18.27;2.60;;;10.40;99.90;;;;;;5110144;28;20070;-80
2023/01/12 15:05:25;;;;;;;18.05;3.17;;;10.30;99.90;;;;;;5095553;28;20055;-80
2023/01/12 15:08:11;;;;;;;13.55;2.45;;;10.30;99.90;;;;;;5115065;28;20058;-81
2023/01/12 15:11:08;;;;;;;15.02;3.03;;;10.30;99.90;;;;;;5112717;28;20155;-80
2023/01/12 15:13:57;;;;;;;10.95;1.88;;;10.30;99.90;;;;;;5095460;28;20047;-84
2023/01/12 15:25:57;;;;;;;10.37;2.20;;;10.30;99.90;;;;;;5094245;28;20056;-81
2023/01/12 15:28:44;;;;;;;17.83;3.50;;;10.30;99.90;;;;;;5112576;28;20048;-80
2023/01/12 15:31:37;;;;;;;10.75;2.38;;;10.20;99.90;;;;;;5080026;28;20134;-82
2023/01/12 15:34:23;;;;;;;9.00;2.63;;;10.20;99.90;;;;;;5097994;28;20082;-81
2023/01/12 15:37:17;;;;;;;11.55;2.35;;;10.10;99.90;;;;;;5112971;28;20142;-86
2023/01/12 15:40:04;;;;;;;13.80;3.05;;;10.20;99.90;;;;;;5118990;28;20580;-80
2023/01/12 15:42:50;;;;;;;24.48;3.75;;;10.20;99.90;;;;;;5098595;28;20052;-81
2023/01/12 15:45:45;;;;;;;20.35;4.57;;;10.20;99.90;;;;;;5094220;28;20552;-81
2023/01/12 15:48:31;;;;;;;21.42;4.93;;;10.20;99.90;;;;;;5095271;28;20572;-82
2023/01/12 15:51:18;;;;;;;22.05;5.65;;;10.20;99.90;;;;;;5114598;28;20055;-84
2023/01/12 15:54:06;;;;;;;21.60;4.60;;;10.20;99.90;;;;;;5113642;28;20051;-80
2023/01/12 15:56:53;;;;;;;22.27;5.15;;;10.20;99.90;;;;;;5079896;28;20104;-79